Wetterdaten: Sonntag, 12.12.2010
Datum Zeit Temp. A. Feuchte A. Luftdruck Regen Wind Richtung Richtung Sonnenschein UV Solar Windben
12.12.2010 00:00 4,7 C 92 % 1010,6 hPa 0,3 mm 8,0 km/h (2 Bft) W 270 0 min 0 UV-I 0 W/m 20,9 km/h (4 Bft)
12.12.2010 00:10 4,7 C 92 % 1010,3 hPa 0,3 mm 11,3 km/h (2 Bft) W 270 0 min 0 UV-I 0 W/m 25,7 km/h (4 Bft)
12.12.2010 00:20 4,7 C 92 % 1010,2 hPa 0,0 mm 9,7 km/h (2 Bft) W 270 0 min 0 UV-I 0 W/m 27,4 km/h (4 Bft)
12.12.2010 00:30 4,7 C 92 % 1010,0 hPa 0,0 mm 8,0 km/h (2 Bft) W-SW 247 0 min 0 UV-I 0 W/m 19,3 km/h (3 Bft)
12.12.2010 00:40 4,7 C 92 % 1009,9 hPa 0,3 mm 12,9 km/h (3 Bft) W 270 0 min 0 UV-I 0 W/m 29,0 km/h (5 Bft)
12.12.2010 00:50 4,7 C 92 % 1009,8 hPa 0,0 mm 9,7 km/h (2 Bft) W 270 0 min 0 UV-I 0 W/m 25,7 km/h (4 Bft)
12.12.2010 01:00 4,7 C 92 % 1009,7 hPa 0,0 mm 11,3 km/h (2 Bft) W 270 0 min 0 UV-I 0 W/m 24,1 km/h (4 Bft)
12.12.2010 01:10 4,7 C 91 % 1010,0 hPa 0,3 mm 11,3 km/h (2 Bft) W 270 0 min 0 UV-I 0 W/m 29,0 km/h (5 Bft)
12.12.2010 01:20 4,8 C 91 % 1009,7 hPa 0,0 mm 11,3 km/h (2 Bft) W 270 0 min 0 UV-I 0 W/m 27,4 km/h (4 Bft)
12.12.2010 01:30 4,7 C 91 % 1009,7 hPa 0,0 mm 9,7 km/h (2 Bft) W 270 0 min 0 UV-I 0 W/m 22,5 km/h (4 Bft)
12.12.2010 01:40 4,7 C 91 % 1009,5 hPa 0,0 mm 9,7 km/h (2 Bft) W 270 0 min 0 UV-I 0 W/m 29,0 km/h (5 Bft)
12.12.2010 01:50 4,6 C 91 % 1009,5 hPa 0,0 mm 9,7 km/h (2 Bft) W 270 0 min 0 UV-I 0 W/m 29,0 km/h (5 Bft)
12.12.2010 02:00 4,6 C 91 % 1009,6 hPa 0,0 mm 9,7 km/h (2 Bft) W-NW 292 0 min 0 UV-I 0 W/m 30,6 km/h (5 Bft)
12.12.2010 02:10 4,4 C 91 % 1009,7 hPa 0,3 mm 8,0 km/h (2 Bft) W-NW 292 0 min 0 UV-I 0 W/m 27,4 km/h (4 Bft)
12.12.2010 02:20 4,4 C 91 % 1009,9 hPa 0,0 mm 8,0 km/h (2 Bft) W-NW 292 0 min 0 UV-I 0 W/m 27,4 km/h (4 Bft)
12.12.2010 02:30 4,4 C 91 % 1010,0 hPa 0,0 mm 6,4 km/h (2 Bft) W-NW 292 0 min 0 UV-I 0 W/m 24,1 km/h (4 Bft)
12.12.2010 02:40 4,4 C 91 % 1010,1 hPa 0,0 mm 8,0 km/h (2 Bft) W-NW 292 0 min 0 UV-I 0 W/m 20,9 km/h (4 Bft)
12.12.2010 02:50 4,4 C 91 % 1010,0 hPa 0,0 mm 6,4 km/h (2 Bft) W-NW 292 0 min 0 UV-I 0 W/m 20,9 km/h (4 Bft)
12.12.2010 03:00 4,4 C 91 % 1010,1 hPa 0,0 mm 4,8 km/h (1 Bft) W-NW 292 0 min 0 UV-I 0 W/m 19,3 km/h (3 Bft)
12.12.2010 03:10 4,4 C 91 % 1010,1 hPa 0,0 mm 4,8 km/h (1 Bft) W-NW 292 0 min 0 UV-I 0 W/m 14,5 km/h (3 Bft)
12.12.2010 03:20 4,4 C 91 % 1010,3 hPa 0,0 mm 8,0 km/h (2 Bft) W-NW 292 0 min 0 UV-I 0 W/m 25,7 km/h (4 Bft)
12.12.2010 03:30 4,3 C 91 % 1010,2 hPa 0,0 mm 6,4 km/h (2 Bft) W-NW 292 0 min 0 UV-I 0 W/m 19,3 km/h (3 Bft)
12.12.2010 03:40 4,2 C 90 % 1010,4 hPa 0,3 mm 9,7 km/h (2 Bft) W-NW 292 0 min 0 UV-I 0 W/m 27,4 km/h (4 Bft)
12.12.2010 03:50 4,0 C 90 % 1010,5 hPa 0,0 mm 6,4 km/h (2 Bft) W-NW 292 0 min 0 UV-I 0 W/m 19,3 km/h (3 Bft)
12.12.2010 04:00 3,9 C 90 % 1010,5 hPa 0,0 mm 6,4 km/h (2 Bft) W-NW 292 0 min 0 UV-I 0 W/m 19,3 km/h (3 Bft)
12.12.2010 04:10 3,8 C 90 % 1010,5 hPa 0,0 mm 4,8 km/h (1 Bft) W-NW 292 0 min 0 UV-I 0 W/m 17,7 km/h (3 Bft)
12.12.2010 04:20 3,7 C 90 % 1010,5 hPa 0,0 mm 4,8 km/h (1 Bft) W 270 0 min 0 UV-I 0 W/m 14,5 km/h (3 Bft)
12.12.2010 04:30 3,6 C 90 % 1010,6 hPa 0,0 mm 4,8 km/h (1 Bft) W 270 0 min 0 UV-I 0 W/m 11,3 km/h (2 Bft)
12.12.2010 04:40 3,6 C 90 % 1010,4 hPa 0,0 mm 4,8 km/h (1 Bft) W 270 0 min 0 UV-I 0 W/m 16,1 km/h (3 Bft)
12.12.2010 04:50 3,6 C 90 % 1010,4 hPa 0,0 mm 8,0 km/h (2 Bft) W 270 0 min 0 UV-I 0 W/m 19,3 km/h (3 Bft)
12.12.2010 05:00 3,6 C 90 % 1010,4 hPa 0,0 mm 6,4 km/h (2 Bft) W 270 0 min 0 UV-I 0 W/m 17,7 km/h (3 Bft)
12.12.2010 05:10 3,5 C 91 % 1010,3 hPa 0,0 mm 6,4 km/h (2 Bft) W 270 0 min 0 UV-I 0 W/m 19,3 km/h (3 Bft)
12.12.2010 05:20 3,5 C 91 % 1010,6 hPa 0,0 mm 8,0 km/h (2 Bft) W 270 0 min 0 UV-I 0 W/m 22,5 km/h (4 Bft)
12.12.2010 05:30 3,6 C 91 % 1010,4 hPa 0,0 mm 6,4 km/h (2 Bft) W 270 0 min 0 UV-I 0 W/m 17,7 km/h (3 Bft)
12.12.2010 05:40 3,6 C 91 % 1010,6 hPa 0,0 mm 8,0 km/h (2 Bft) W 270 0 min 0 UV-I 0 W/m 17,7 km/h (3 Bft)
12.12.2010 05:50 3,6 C 91 % 1010,7 hPa 0,0 mm 4,8 km/h (1 Bft) W 270 0 min 0 UV-I 0 W/m 14,5 km/h (3 Bft)
12.12.2010 06:00 3,6 C 91 % 1010,6 hPa 0,0 mm 8,0 km/h (2 Bft) W 270 0 min 0 UV-I 0 W/m 22,5 km/h (4 Bft)
12.12.2010 06:10 3,6 C 91 % 1010,4 hPa 0,0 mm 9,7 km/h (2 Bft) W 270 0 min 0 UV-I 0 W/m 22,5 km/h (4 Bft)
12.12.2010 06:20 3,5 C 91 % 1010,6 hPa 0,0 mm 8,0 km/h (2 Bft) W 270 0 min 0 UV-I 0 W/m 20,9 km/h (4 Bft)
12.12.2010 06:30 3,5 C 91 % 1010,5 hPa 0,0 mm 8,0 km/h (2 Bft) W 270 0 min 0 UV-I 0 W/m 22,5 km/h (4 Bft)
12.12.2010 06:40 3,5 C 91 % 1010,6 hPa 0,0 mm 9,7 km/h (2 Bft) W 270 0 min 0 UV-I 0 W/m 22,5 km/h (4 Bft)
12.12.2010 06:50 3,5 C 91 % 1010,5 hPa 0,0 mm 8,0 km/h (2 Bft) W 270 0 min 0 UV-I 0 W/m 19,3 km/h (3 Bft)
12.12.2010 07:00 3,5 C 91 % 1010,4 hPa 0,0 mm 6,4 km/h (2 Bft) W-NW 292 0 min 0 UV-I 0 W/m 20,9 km/h (4 Bft)
12.12.2010 07:10 3,5 C 91 % 1010,6 hPa 0,3 mm 6,4 km/h (2 Bft) W 270 0 min 0 UV-I 0 W/m 16,1 km/h (3 Bft)
12.12.2010 07:20 3,5 C 91 % 1010,7 hPa 0,0 mm 6,4 km/h (2 Bft) W 270 0 min 0 UV-I 0 W/m 20,9 km/h (4 Bft)
12.12.2010 07:30 3,5 C 91 % 1010,7 hPa 0,0 mm 4,8 km/h (1 Bft) W-NW 292 0 min 0 UV-I 0 W/m 22,5 km/h (4 Bft)
12.12.2010 07:40 3,5 C 91 % 1010,9 hPa 0,0 mm 6,4 km/h (2 Bft) W-NW 292 0 min 0 UV-I 0 W/m 19,3 km/h (3 Bft)
12.12.2010 07:50 3,5 C 91 % 1011,1 hPa 0,0 mm 6,4 km/h (2 Bft) W-NW 292 0 min 0 UV-I 0 W/m 14,5 km/h (3 Bft)
12.12.2010 08:00 3,5 C 91 % 1011,1 hPa 0,0 mm 6,1 km/h (2 Bft) N 355 0 min 0 UV-I 0 W/m 14,5 km/h (3 Bft)
12.12.2010 08:10 3,5 C 91 % 1011,2 hPa 0,0 mm 6,4 km/h (2 Bft) W-NW 292 0 min 0 UV-I 0 W/m 19,3 km/h (3 Bft)
12.12.2010 08:20 3,5 C 91 % 1011,3 hPa 0,0 mm 4,8 km/h (1 Bft) W 270 0 min 0 UV-I 0 W/m 16,1 km/h (3 Bft)
12.12.2010 08:30 3,5 C 91 % 1011,5 hPa 0,0 mm 3,2 km/h (1 Bft) W-NW 292 0 min 0 UV-I 0 W/m 14,5 km/h (3 Bft)
12.12.2010 08:40 3,5 C 91 % 1011,5 hPa 0,0 mm 4,8 km/h (1 Bft) W-NW 292 0 min 0 UV-I 0 W/m 17,7 km/h (3 Bft)
12.12.2010 08:50 3,5 C 91 % 1011,9 hPa 0,0 mm 3,2 km/h (1 Bft) W-NW 292 0 min 0 UV-I 0 W/m 12,9 km/h (3 Bft)
12.12.2010 09:00 3,5 C 91 % 1011,9 hPa 0,0 mm 3,2 km/h (1 Bft) W-NW 292 0 min 0 UV-I 0 W/m 12,9 km/h (3 Bft)
12.12.2010 09:10 3,5 C 91 % 1011,9 hPa 0,0 mm 4,8 km/h (1 Bft) W-NW 292 0 min 0 UV-I 5 W/m 16,1 km/h (3 Bft)
12.12.2010 09:20 3,6 C 91 % 1012,1 hPa 0,0 mm 3,2 km/h (1 Bft) W-NW 292 0 min 0 UV-I 5 W/m 20,9 km/h (4 Bft)
12.12.2010 09:30 3,6 C 91 % 1012,2 hPa 0,0 mm 3,2 km/h (1 Bft) W-NW 292 0 min 0 UV-I 9 W/m 9,7 km/h (2 Bft)
12.12.2010 09:40 3,6 C 91 % 1012,2 hPa 0,0 mm 1,6 km/h (1 Bft) W 270 0 min 0 UV-I 7 W/m 9,7 km/h (2 Bft)
12.12.2010 09:50 3,6 C 91 % 1012,3 hPa 0,0 mm 3,2 km/h (1 Bft) W-NW 292 0 min 0 UV-I 14 W/m 11,3 km/h (2 Bft)
12.12.2010 10:00 3,6 C 91 % 1012,3 hPa 0,0 mm 3,2 km/h (1 Bft) W-NW 292 0 min 0 UV-I 18 W/m 11,3 km/h (2 Bft)
12.12.2010 10:10 3,6 C 91 % 1012,4 hPa 0,0 mm 3,2 km/h (1 Bft) W-NW 292 0 min 0 UV-I 14 W/m 11,3 km/h (2 Bft)
12.12.2010 10:20 3,6 C 91 % 1012,7 hPa 0,0 mm 3,2 km/h (1 Bft) W-NW 292 0 min 0 UV-I 14 W/m 11,3 km/h (2 Bft)
12.12.2010 10:30 3,6 C 91 % 1012,8 hPa 0,0 mm 3,2 km/h (1 Bft) N-NO 22 0 min 0 UV-I 16 W/m 11,3 km/h (2 Bft)
12.12.2010 10:40 3,4 C 91 % 1012,9 hPa 0,0 mm 4,8 km/h (1 Bft) N 360 0 min 0 UV-I 25 W/m 14,5 km/h (3 Bft)
12.12.2010 10:50 3,3 C 91 % 1013,0 hPa 0,0 mm 6,4 km/h (2 Bft) N-NO 22 0 min 0 UV-I 28 W/m 24,1 km/h (4 Bft)
12.12.2010 11:00 3,2 C 91 % 1013,1 hPa 0,0 mm 3,2 km/h (1 Bft) W-NW 292 0 min 0 UV-I 51 W/m 22,5 km/h (4 Bft)
12.12.2010 11:10 3,1 C 90 % 1013,0 hPa 0,0 mm 3,2 km/h (1 Bft) W-NW 292 0 min 0 UV-I 51 W/m 20,9 km/h (4 Bft)
12.12.2010 11:20 3,1 C 90 % 1013,3 hPa 0,0 mm 3,2 km/h (1 Bft) N-NO 22 0 min 0 UV-I 54 W/m 12,9 km/h (3 Bft)
12.12.2010 11:30 3,1 C 89 % 1013,2 hPa 0,0 mm 3,2 km/h (1 Bft) N-NO 22 0 min 0 UV-I 62 W/m 19,3 km/h (3 Bft)
12.12.2010 11:40 3,1 C 89 % 1013,3 hPa 0,0 mm 1,6 km/h (1 Bft) W-NW 292 0 min 0 UV-I 44 W/m 9,7 km/h (2 Bft)
12.12.2010 11:50 3,1 C 88 % 1013,3 hPa 0,0 mm 3,2 km/h (1 Bft) N-NW 337 0 min 0 UV-I 100 W/m 11,3 km/h (2 Bft)
12.12.2010 12:00 3,1 C 88 % 1013,4 hPa 0,0 mm 3,2 km/h (1 Bft) N 360 0 min 0 UV-I 67 W/m 17,7 km/h (3 Bft)
12.12.2010 12:10 3,1 C 87 % 1013,4 hPa 0,0 mm 3,2 km/h (1 Bft) W-NW 292 0 min 0 UV-I 67 W/m 11,3 km/h (2 Bft)
12.12.2010 12:20 3,2 C 86 % 1013,3 hPa 0,0 mm 3,2 km/h (1 Bft) W-SW 247 0 min 0 UV-I 65 W/m 17,7 km/h (3 Bft)
12.12.2010 12:30 3,2 C 86 % 1013,4 hPa 0,0 mm 3,2 km/h (1 Bft) W-NW 292 0 min 0 UV-I 60 W/m 16,1 km/h (3 Bft)
12.12.2010 12:40 3,2 C 85 % 1013,5 hPa 0,0 mm 3,2 km/h (1 Bft) NW 315 0 min 0 UV-I 47 W/m 16,1 km/h (3 Bft)
12.12.2010 12:50 3,2 C 85 % 1013,6 hPa 0,0 mm 1,6 km/h (1 Bft) W-NW 292 0 min 0 UV-I 46 W/m 11,3 km/h (2 Bft)
12.12.2010 13:00 3,2 C 85 % 1013,6 hPa 0,0 mm 3,2 km/h (1 Bft) W-NW 292 0 min 0 UV-I 37 W/m 11,3 km/h (2 Bft)
12.12.2010 13:10 3,1 C 84 % 1013,9 hPa 0,0 mm 6,4 km/h (2 Bft) W-NW 292 0 min 0 UV-I 16 W/m 17,7 km/h (3 Bft)
12.12.2010 13:20 2,9 C 85 % 1014,0 hPa 0,0 mm 3,2 km/h (1 Bft) N-NO 22 0 min 0 UV-I 14 W/m 11,3 km/h (2 Bft)
12.12.2010 13:30 2,8 C 85 % 1014,1 hPa 0,3 mm 1,6 km/h (1 Bft) N-NO 22 0 min 0 UV-I 19 W/m 8,0 km/h (2 Bft)
12.12.2010 13:40 2,6 C 85 % 1014,3 hPa 0,0 mm 6,4 km/h (2 Bft) N 360 0 min 0 UV-I 19 W/m 20,9 km/h (4 Bft)
12.12.2010 13:50 2,3 C 85 % 1014,5 hPa 0,0 mm 3,2 km/h (1 Bft) N-NO 22 0 min 0 UV-I 18 W/m 20,9 km/h (4 Bft)
12.12.2010 14:00 2,1 C 86 % 1014,7 hPa 0,0 mm 1,6 km/h (1 Bft) N 360 0 min 0 UV-I 23 W/m 16,1 km/h (3 Bft)
12.12.2010 14:10 1,9 C 86 % 1014,8 hPa 0,0 mm 3,2 km/h (1 Bft) NW 315 0 min 0 UV-I 28 W/m 19,3 km/h (3 Bft)
12.12.2010 14:20 1,8 C 86 % 1014,9 hPa 0,0 mm 1,6 km/h (1 Bft) N 360 0 min 0 UV-I 26 W/m 8,0 km/h (2 Bft)
12.12.2010 14:30 1,7 C 86 % 1015,0 hPa 0,0 mm 1,6 km/h (1 Bft) W-NW 292 0 min 0 UV-I 9 W/m 16,1 km/h (3 Bft)
12.12.2010 14:40 1,7 C 86 % 1015,2 hPa 0,0 mm 1,6 km/h (1 Bft) N 360 0 min 0 UV-I 9 W/m 17,7 km/h (3 Bft)
12.12.2010 14:50 1,7 C 85 % 1015,2 hPa 0,0 mm 4,8 km/h (1 Bft) N 360 0 min 0 UV-I 18 W/m 16,1 km/h (3 Bft)
12.12.2010 15:00 1,6 C 85 % 1015,3 hPa 0,0 mm 3,2 km/h (1 Bft) N-NO 22 0 min 0 UV-I 25 W/m 11,3 km/h (2 Bft)
12.12.2010 15:10 1,6 C 85 % 1015,4 hPa 0,0 mm 3,2 km/h (1 Bft) NW 315 0 min 0 UV-I 11 W/m 14,5 km/h (3 Bft)
12.12.2010 15:20 1,6 C 85 % 1015,7 hPa 0,0 mm 1,6 km/h (1 Bft) N-NO 22 0 min 0 UV-I 5 W/m 6,4 km/h (2 Bft)
12.12.2010 15:30 1,6 C 86 % 1015,8 hPa 0,0 mm 1,6 km/h (1 Bft) N-NW 337 0 min 0 UV-I 7 W/m 14,5 km/h (3 Bft)
12.12.2010 15:40 1,5 C 85 % 1015,6 hPa 0,0 mm 3,2 km/h (1 Bft) N-NO 22 0 min 0 UV-I 7 W/m 9,7 km/h (2 Bft)
12.12.2010 15:50 1,4 C 86 % 1015,9 hPa 0,0 mm 1,6 km/h (1 Bft) N 360 0 min 0 UV-I 0 W/m 9,7 km/h (2 Bft)
12.12.2010 16:00 1,4 C 86 % 1016,1 hPa 0,0 mm 2,2 km/h (1 Bft) N-NO 31 0 min 0 UV-I 0 W/m 8,0 km/h (2 Bft)
12.12.2010 16:10 1,4 C 86 % 1016,3 hPa 0,0 mm 1,6 km/h (1 Bft) N-NO 22 0 min 0 UV-I 0 W/m 14,5 km/h (3 Bft)
12.12.2010 16:20 1,4 C 86 % 1016,5 hPa 0,0 mm 3,2 km/h (1 Bft) N-NO 22 0 min 0 UV-I 0 W/m 12,9 km/h (3 Bft)
12.12.2010 16:30 1,3 C 87 % 1016,6 hPa 0,0 mm 3,2 km/h (1 Bft) N-NO 22 0 min 0 UV-I 0 W/m 11,3 km/h (2 Bft)
12.12.2010 16:40 1,2 C 87 % 1016,7 hPa 0,0 mm 3,2 km/h (1 Bft) N-NO 22 0 min 0 UV-I 0 W/m 16,1 km/h (3 Bft)
12.12.2010 16:50 1,1 C 87 % 1016,9 hPa 0,0 mm 1,6 km/h (1 Bft) N 360 0 min 0 UV-I 0 W/m 9,7 km/h (2 Bft)
12.12.2010 17:00 1,1 C 87 % 1017,0 hPa 0,0 mm 3,2 km/h (1 Bft) N 360 0 min 0 UV-I 0 W/m 16,1 km/h (3 Bft)
12.12.2010 17:10 0,9 C 87 % 1017,1 hPa 0,0 mm 4,8 km/h (1 Bft) N 360 0 min 0 UV-I 0 W/m 16,1 km/h (3 Bft)
12.12.2010 17:20 0,8 C 86 % 1017,2 hPa 0,0 mm 4,8 km/h (1 Bft) N 360 0 min 0 UV-I 0 W/m 17,7 km/h (3 Bft)
12.12.2010 17:30 0,7 C 86 % 1017,4 hPa 0,0 mm 3,2 km/h (1 Bft) N-NO 22 0 min 0 UV-I 0 W/m 17,7 km/h (3 Bft)
12.12.2010 17:40 0,7 C 85 % 1017,4 hPa 0,0 mm 3,2 km/h (1 Bft) N-NW 337 0 min 0 UV-I 0 W/m 16,1 km/h (3 Bft)
12.12.2010 17:50 0,6 C 85 % 1017,7 hPa 0,0 mm 3,2 km/h (1 Bft) N-NW 337 0 min 0 UV-I 0 W/m 17,7 km/h (3 Bft)
12.12.2010 18:00 0,5 C 85 % 1017,7 hPa 0,0 mm 3,2 km/h (1 Bft) N-NO 22 0 min 0 UV-I 0 W/m 14,5 km/h (3 Bft)
12.12.2010 18:10 0,4 C 84 % 1017,9 hPa 0,0 mm 4,8 km/h (1 Bft) N-NO 22 0 min 0 UV-I 0 W/m 22,5 km/h (4 Bft)
12.12.2010 18:20 0,3 C 82 % 1017,9 hPa 0,0 mm 4,8 km/h (1 Bft) N-NO 22 0 min 0 UV-I 0 W/m 16,1 km/h (3 Bft)
12.12.2010 18:30 0,2 C 81 % 1018,4 hPa 0,0 mm 4,8 km/h (1 Bft) N-NO 22 0 min 0 UV-I 0 W/m 12,9 km/h (3 Bft)
12.12.2010 18:40 0,2 C 81 % 1018,4 hPa 0,0 mm 3,2 km/h (1 Bft) N-NO 22 0 min 0 UV-I 0 W/m 14,5 km/h (3 Bft)
12.12.2010 18:50 0,2 C 80 % 1018,6 hPa 0,0 mm 3,2 km/h (1 Bft) N-NO 22 0 min 0 UV-I 0 W/m 14,5 km/h (3 Bft)
12.12.2010 19:00 0,1 C 80 % 1018,6 hPa 0,0 mm 4,8 km/h (1 Bft) N-NO 22 0 min 0 UV-I 0 W/m 16,1 km/h (3 Bft)
12.12.2010 19:10 0,1 C 80 % 1018,9 hPa 0,0 mm 4,8 km/h (1 Bft) N 360 0 min 0 UV-I 0 W/m 14,5 km/h (3 Bft)
12.12.2010 19:20 0,0 C 80 % 1018,9 hPa 0,0 mm 4,8 km/h (1 Bft) N-NO 22 0 min 0 UV-I 0 W/m 16,1 km/h (3 Bft)
12.12.2010 19:30 -0,1 C 79 % 1019,3 hPa 0,0 mm 4,8 km/h (1 Bft) N 360 0 min 0 UV-I 0 W/m 24,1 km/h (4 Bft)
12.12.2010 19:40 -0,2 C 77 % 1019,4 hPa 0,0 mm 8,0 km/h (2 Bft) N-NO 22 0 min 0 UV-I 0 W/m 20,9 km/h (4 Bft)
12.12.2010 19:50 -0,4 C 76 % 1019,5 hPa 0,0 mm 6,4 km/h (2 Bft) N 360 0 min 0 UV-I 0 W/m 19,3 km/h (3 Bft)
12.12.2010 20:00 -0,7 C 74 % 1019,9 hPa 0,0 mm 8,0 km/h (2 Bft) N-NO 22 0 min 0 UV-I 0 W/m 30,6 km/h (5 Bft)
12.12.2010 20:10 -0,8 C 74 % 1019,8 hPa 0,0 mm 8,0 km/h (2 Bft) N-NO 22 0 min 0 UV-I 0 W/m 22,5 km/h (4 Bft)
12.12.2010 20:20 -1,0 C 74 % 1020,1 hPa 0,0 mm 6,4 km/h (2 Bft) N-NO 22 0 min 0 UV-I 0 W/m 20,9 km/h (4 Bft)
12.12.2010 20:30 -1,2 C 74 % 1020,2 hPa 0,0 mm 4,8 km/h (1 Bft) N-NO 22 0 min 0 UV-I 0 W/m 17,7 km/h (3 Bft)
12.12.2010 20:40 -1,2 C 74 % 1020,3 hPa 0,0 mm 4,8 km/h (1 Bft) N-NO 22 0 min 0 UV-I 0 W/m 17,7 km/h (3 Bft)
12.12.2010 20:50 -1,3 C 73 % 1020,1 hPa 0,0 mm 4,8 km/h (1 Bft) N-NO 22 0 min 0 UV-I 0 W/m 20,9 km/h (4 Bft)
12.12.2010 21:00 -1,3 C 72 % 1020,3 hPa 0,0 mm 8,0 km/h (2 Bft) N-NO 22 0 min 0 UV-I 0 W/m 24,1 km/h (4 Bft)
12.12.2010 21:10 -1,3 C 71 % 1020,4 hPa 0,0 mm 4,8 km/h (1 Bft) N 360 0 min 0 UV-I 0 W/m 16,1 km/h (3 Bft)
12.12.2010 21:20 -1,3 C 72 % 1020,4 hPa 0,0 mm 3,2 km/h (1 Bft) N 360 0 min 0 UV-I 0 W/m 17,7 km/h (3 Bft)
12.12.2010 21:30 -1,2 C 72 % 1020,6 hPa 0,0 mm 4,8 km/h (1 Bft) N-NO 22 0 min 0 UV-I 0 W/m 20,9 km/h (4 Bft)
12.12.2010 21:40 -1,2 C 72 % 1020,4 hPa 0,0 mm 4,8 km/h (1 Bft) N-NO 22 0 min 0 UV-I 0 W/m 14,5 km/h (3 Bft)
12.12.2010 21:50 -1,2 C 72 % 1020,4 hPa 0,0 mm 3,2 km/h (1 Bft) N-NO 22 0 min 0 UV-I 0 W/m 14,5 km/h (3 Bft)
12.12.2010 22:00 -1,3 C 73 % 1020,5 hPa 0,0 mm 6,4 km/h (2 Bft) N 360 0 min 0 UV-I 0 W/m 17,7 km/h (3 Bft)
12.12.2010 22:10 -1,3 C 72 % 1020,5 hPa 0,0 mm 8,0 km/h (2 Bft) N-NO 22 0 min 0 UV-I 0 W/m 22,5 km/h (4 Bft)
12.12.2010 22:20 -1,4 C 73 % 1021,0 hPa 0,0 mm 4,8 km/h (1 Bft) NO 45 0 min 0 UV-I 0 W/m 19,3 km/h (3 Bft)
12.12.2010 22:30 -1,4 C 72 % 1021,0 hPa 0,0 mm 8,0 km/h (2 Bft) N-NO 22 0 min 0 UV-I 0 W/m 20,9 km/h (4 Bft)
12.12.2010 22:40 -1,6 C 72 % 1021,3 hPa 0,0 mm 3,2 km/h (1 Bft) O-NO 67 0 min 0 UV-I 0 W/m 11,3 km/h (2 Bft)
12.12.2010 22:50 -1,8 C 71 % 1021,4 hPa 0,0 mm 3,2 km/h (1 Bft) NO 45 0 min 0 UV-I 0 W/m 11,3 km/h (2 Bft)
12.12.2010 23:00 -1,9 C 71 % 1021,5 hPa 0,0 mm 3,2 km/h (1 Bft) NO 45 0 min 0 UV-I 0 W/m 9,7 km/h (2 Bft)
12.12.2010 23:10 -2,1 C 71 % 1021,6 hPa 0,0 mm 1,6 km/h (1 Bft) O-NO 67 0 min 0 UV-I 0 W/m 9,7 km/h (2 Bft)
12.12.2010 23:20 -2,2 C 72 % 1021,8 hPa 0,0 mm 1,6 km/h (1 Bft) O-NO 67 0 min 0 UV-I 0 W/m 4,8 km/h (1 Bft)
12.12.2010 23:30 -2,2 C 73 % 1021,9 hPa 0,0 mm 0,0 km/h (0 Bft) NO 45 0 min 0 UV-I 0 W/m 3,2 km/h (1 Bft)
12.12.2010 23:40 -2,3 C 73 % 1021,9 hPa 0,0 mm 0,0 km/h (0 Bft) NO 45 0 min 0 UV-I 0 W/m 3,2 km/h (1 Bft)
12.12.2010 23:50 -2,3 C 73 % 1022,0 hPa 0,0 mm 1,6 km/h (1 Bft) NO 45 0 min 0 UV-I 0 W/m 6,4 km/h (2 Bft)
_ Min-Zeit 23:40 21:10 01:40 - 23:30 - - - - - 23:30
Minimum _ -2,3 C 71 % 1009,5 hPa - 0,0 km/h (0 Bft) - - - - - 3,2 km/h (1 Bft)
_ Max-Zeit 01:10 00:00 23:50 00:00 00:40 - - 00:00 00:00 11:50 02:00
Maximum _ 4,8 C 92 % 1022,0 hPa 0,3 mm 12,9 km/h
W (3 Bft)
- - 0 min 0 UV-I 100 W/m 30,6 km/h
W (5 Bft)
Durchschnitt _ 2,2 C 86 % 1014,3 hPa #2,0 mm 5,1 km/h (1 Bft) W-NW - #0 min. 0 UV-I 29 W/m 17,3 km/h (3 Bft)